Time;durP1;ratioP1;P1;durP2;ratioP2;P2;SDS_P1;SDS_P2;PMS_P1;PMS_P2;Temp;Humidity;BMP_temperature;BMP_pressure;BME280_temperature;BME280_humidity;BME280_pressure;Samples;Min_cycle;Max_cycle;Signal;HPM_P1;HPM_P2
2024/01/23 00:00:14;;;;;;;22.90;4.63;;;8.80;99.90;;;;;;5074422;28;20291;-70
2024/01/23 00:02:39;;;;;;;20.90;3.93;;;8.80;99.90;;;;;;5074701;28;20615;-70
2024/01/23 00:05:05;;;;;;;22.60;4.20;;;8.80;99.90;;;;;;5074857;28;20640;-69
2024/01/23 00:07:31;;;;;;;20.77;3.97;;;8.90;99.90;;;;;;5074741;28;20169;-69
2024/01/23 00:09:56;;;;;;;22.83;3.90;;;8.80;99.90;;;;;;5074262;28;20177;-69
2024/01/23 00:12:22;;;;;;;18.17;4.30;;;8.80;99.90;;;;;;5074352;28;20160;-71
2024/01/23 00:14:48;;;;;;;26.70;4.53;;;8.80;99.90;;;;;;5074341;28;20168;-70
2024/01/23 00:17:14;;;;;;;20.63;4.13;;;8.70;99.90;;;;;;5072995;28;20175;-69
2024/01/23 00:19:40;;;;;;;20.40;4.20;;;8.70;99.90;;;;;;5074265;28;20169;-69
2024/01/23 00:22:05;;;;;;;18.43;4.27;;;8.60;99.90;;;;;;5074221;28;20211;-69
2024/01/23 00:24:31;;;;;;;29.17;4.67;;;8.60;99.90;;;;;;5073896;28;20532;-69
2024/01/23 00:26:57;;;;;;;23.90;4.50;;;8.60;99.90;;;;;;5074232;28;20230;-70
2024/01/23 00:29:22;;;;;;;25.83;4.70;;;8.60;99.90;;;;;;5074151;28;20169;-69
2024/01/23 00:31:48;;;;;;;26.13;4.80;;;8.60;99.90;;;;;;5073753;28;20212;-69
2024/01/23 00:34:13;;;;;;;26.93;5.17;;;8.60;99.90;;;;;;5074147;28;20705;-69
2024/01/23 00:36:39;;;;;;;23.50;4.67;;;8.60;99.90;;;;;;5073893;28;20172;-70
2024/01/23 00:39:04;;;;;;;19.83;4.07;;;8.60;99.90;;;;;;5073584;28;20180;-69
2024/01/23 00:41:31;;;;;;;20.60;3.90;;;8.70;99.90;;;;;;5073739;28;20244;-69
2024/01/23 00:43:56;;;;;;;18.57;4.37;;;8.80;99.90;;;;;;5073785;28;20207;-70
2024/01/23 00:46:22;;;;;;;19.90;5.33;;;8.80;99.90;;;;;;5073805;28;20227;-70
2024/01/23 00:48:47;;;;;;;21.07;4.67;;;8.80;99.90;;;;;;5073709;28;20183;-69
2024/01/23 00:51:14;;;;;;;26.67;5.30;;;8.80;99.90;;;;;;5073774;28;20580;-68
2024/01/23 00:53:39;;;;;;;24.03;4.83;;;8.80;99.90;;;;;;5072883;28;20184;-69
2024/01/23 00:56:05;;;;;;;27.60;5.17;;;8.70;99.90;;;;;;5073261;28;20530;-69
2024/01/23 00:58:30;;;;;;;21.40;4.23;;;8.70;99.90;;;;;;5073651;28;20269;-69
2024/01/23 01:00:56;;;;;;;22.67;4.67;;;8.70;99.90;;;;;;5073316;28;20208;-69
2024/01/23 01:03:21;;;;;;;22.13;4.77;;;8.60;99.90;;;;;;5073480;28;20263;-69
2024/01/23 01:05:47;;;;;;;21.03;4.27;;;8.60;99.90;;;;;;5073416;28;20180;-69
2024/01/23 01:08:13;;;;;;;22.57;5.37;;;8.70;99.90;;;;;;5073125;28;20528;-69
2024/01/23 01:10:38;;;;;;;23.70;4.63;;;8.60;99.90;;;;;;5073534;28;20208;-69
2024/01/23 01:13:04;;;;;;;26.33;4.67;;;8.60;99.90;;;;;;5073265;28;20632;-70
2024/01/23 01:15:30;;;;;;;20.83;4.30;;;8.60;99.90;;;;;;5073235;28;20574;-69
2024/01/23 01:17:56;;;;;;;21.67;4.67;;;8.60;99.90;;;;;;5073627;28;20225;-68
2024/01/23 01:20:21;;;;;;;26.10;5.00;;;8.60;99.90;;;;;;5073250;28;20200;-68
2024/01/23 01:22:47;;;;;;;24.20;5.03;;;8.50;99.90;;;;;;5072773;28;20183;-69
2024/01/23 01:25:13;;;;;;;22.03;4.50;;;8.50;99.90;;;;;;5073225;28;20168;-68
2024/01/23 01:27:38;;;;;;;29.73;4.83;;;8.50;99.90;;;;;;5073192;28;20255;-69
2024/01/23 01:30:06;;;;;;;21.00;4.60;;;8.50;99.90;;;;;;5072800;28;20268;-69
2024/01/23 01:32:31;;;;;;;25.17;4.80;;;8.50;99.90;;;;;;5072965;28;20184;-68
2024/01/23 01:34:57;;;;;;;20.17;4.57;;;8.50;99.90;;;;;;5073227;28;20180;-68
2024/01/23 01:37:23;;;;;;;23.03;4.90;;;8.40;99.90;;;;;;5072760;28;20179;-68
2024/01/23 01:39:48;;;;;;;24.47;4.93;;;8.50;99.90;;;;;;5073174;28;20176;-68
2024/01/23 01:42:14;;;;;;;22.20;4.67;;;8.40;99.90;;;;;;5072929;28;20231;-68
2024/01/23 01:44:40;;;;;;;18.13;4.20;;;8.40;99.90;;;;;;5072936;28;20183;-68
2024/01/23 01:47:08;;;;;;;24.47;4.37;;;8.40;99.90;;;;;;5073093;28;20267;-68
2024/01/23 01:49:34;;;;;;;26.87;4.77;;;8.40;99.90;;;;;;5073137;28;20176;-68
2024/01/23 01:52:00;;;;;;;22.30;4.60;;;8.30;99.90;;;;;;5072351;28;20624;-68
2024/01/23 01:54:27;;;;;;;27.77;5.10;;;8.30;99.90;;;;;;5072988;28;20176;-69
2024/01/23 01:56:54;;;;;;;27.07;4.57;;;8.30;99.90;;;;;;5072768;28;20313;-68
2024/01/23 01:59:20;;;;;;;25.50;4.70;;;8.30;99.90;;;;;;5072911;28;20636;-69
2024/01/23 02:01:46;;;;;;;24.33;4.50;;;8.20;99.90;;;;;;5072894;28;20253;-69
2024/01/23 02:04:13;;;;;;;16.57;3.93;;;8.20;99.90;;;;;;5072843;28;20500;-69
2024/01/23 02:06:38;;;;;;;21.93;4.53;;;8.20;99.90;;;;;;5075600;28;20183;-69
2024/01/23 02:09:04;;;;;;;24.07;5.97;;;8.20;99.90;;;;;;5076858;28;20164;-69
2024/01/23 02:11:30;;;;;;;17.00;3.80;;;8.20;99.90;;;;;;5076744;28;20176;-69
2024/01/23 02:13:56;;;;;;;15.80;4.43;;;8.10;99.90;;;;;;5076913;28;20168;-69
2024/01/23 02:16:22;;;;;;;20.67;4.53;;;8.10;99.90;;;;;;5076759;28;20639;-69
2024/01/23 02:18:48;;;;;;;20.37;4.17;;;8.10;99.90;;;;;;5076672;28;20571;-69
2024/01/23 02:21:15;;;;;;;16.27;3.90;;;8.10;99.90;;;;;;5076200;28;20224;-69
2024/01/23 02:23:42;;;;;;;19.33;4.30;;;8.10;99.90;;;;;;5076615;28;20202;-69
2024/01/23 02:26:07;;;;;;;20.43;3.93;;;8.00;99.90;;;;;;5076324;28;20173;-69
2024/01/23 02:28:33;;;;;;;18.30;4.37;;;8.00;99.90;;;;;;5076384;28;20171;-69
2024/01/23 02:30:59;;;;;;;18.47;4.30;;;8.00;99.90;;;;;;5076130;28;20220;-69
2024/01/23 02:33:24;;;;;;;22.20;3.80;;;8.00;99.90;;;;;;5076052;28;20169;-69
2024/01/23 02:35:50;;;;;;;20.80;3.50;;;8.00;99.90;;;;;;5076200;28;20173;-69
2024/01/23 02:38:16;;;;;;;21.07;4.13;;;8.00;99.90;;;;;;5076240;28;20632;-69
2024/01/23 02:40:41;;;;;;;16.63;4.23;;;8.00;99.90;;;;;;5075837;28;20200;-69
2024/01/23 02:43:07;;;;;;;23.33;4.30;;;8.10;99.90;;;;;;5076317;28;20527;-68
2024/01/23 02:45:33;;;;;;;17.80;3.50;;;8.10;99.90;;;;;;5076087;28;20214;-68
2024/01/23 02:47:59;;;;;;;13.87;3.53;;;8.00;99.90;;;;;;5075836;28;20173;-68
2024/01/23 02:50:26;;;;;;;18.37;4.13;;;7.90;99.90;;;;;;5074897;28;20233;-70
2024/01/23 02:52:52;;;;;;;21.13;3.90;;;7.80;99.90;;;;;;5075923;28;20173;-69
2024/01/23 02:55:17;;;;;;;17.20;3.53;;;7.80;99.90;;;;;;5075792;28;20177;-68
2024/01/23 02:57:43;;;;;;;25.60;4.30;;;7.80;99.90;;;;;;5075961;28;20199;-69
2024/01/23 03:00:09;;;;;;;16.30;3.73;;;7.70;99.90;;;;;;5075794;28;20264;-69
2024/01/23 03:02:34;;;;;;;22.13;4.30;;;7.70;99.90;;;;;;5075454;28;20204;-69
2024/01/23 03:05:00;;;;;;;16.77;3.70;;;7.80;99.90;;;;;;5075735;28;20180;-69
2024/01/23 03:07:25;;;;;;;15.40;3.43;;;7.70;99.90;;;;;;5075571;28;20188;-69
2024/01/23 03:09:52;;;;;;;15.37;3.80;;;7.60;99.90;;;;;;5075591;28;20176;-69
2024/01/23 03:12:20;;;;;;;11.00;3.03;;;7.70;99.90;;;;;;5075562;28;20169;-69
2024/01/23 03:14:46;;;;;;;19.40;3.43;;;7.60;99.90;;;;;;5075681;28;20204;-69
2024/01/23 03:17:13;;;;;;;17.30;4.17;;;7.60;99.90;;;;;;5074258;28;20168;-69
2024/01/23 03:19:40;;;;;;;16.03;3.80;;;7.60;99.90;;;;;;5075487;28;20256;-69
2024/01/23 03:22:05;;;;;;;19.57;3.70;;;7.60;99.90;;;;;;5075349;28;20610;-69
2024/01/23 03:24:32;;;;;;;18.67;3.63;;;7.60;99.90;;;;;;5075192;28;20229;-69
2024/01/23 03:26:57;;;;;;;11.47;3.10;;;7.60;99.90;;;;;;5075238;28;20176;-69
2024/01/23 03:29:28;;;;;;;18.93;3.33;;;7.60;99.90;;;;;;5075178;28;20525;-69
2024/01/23 03:31:53;;;;;;;18.47;3.23;;;7.50;99.90;;;;;;5074647;28;20231;-69
2024/01/23 03:34:19;;;;;;;17.97;3.67;;;7.50;99.90;;;;;;5075216;28;20169;-68
2024/01/23 03:36:45;;;;;;;13.50;2.93;;;7.40;99.90;;;;;;5074948;28;20299;-68
2024/01/23 03:39:11;;;;;;;15.67;3.30;;;7.50;99.90;;;;;;5074943;28;20211;-69
2024/01/23 03:41:37;;;;;;;14.47;3.37;;;7.50;99.90;;;;;;5074708;28;20297;-69
2024/01/23 03:44:05;;;;;;;15.23;3.77;;;7.60;99.90;;;;;;5074905;28;20232;-69
2024/01/23 03:46:31;;;;;;;21.30;3.60;;;7.50;99.90;;;;;;5074793;28;20360;-69
2024/01/23 03:48:57;;;;;;;18.47;3.83;;;7.50;99.90;;;;;;5074888;28;20630;-69
2024/01/23 03:51:22;;;;;;;22.10;4.07;;;7.40;99.90;;;;;;5074642;28;20169;-69
2024/01/23 03:53:48;;;;;;;16.53;3.33;;;7.40;99.90;;;;;;5074577;28;20643;-69
2024/01/23 03:56:15;;;;;;;16.47;4.10;;;7.40;99.90;;;;;;5074596;28;20173;-69
2024/01/23 03:58:41;;;;;;;15.40;3.50;;;7.40;99.90;;;;;;5074644;28;20172;-68
2024/01/23 04:01:07;;;;;;;11.23;3.27;;;7.40;99.90;;;;;;5073999;28;20208;-68
2024/01/23 04:03:32;;;;;;;16.50;3.57;;;7.40;99.90;;;;;;5074568;28;20164;-69
2024/01/23 04:05:58;;;;;;;20.43;4.03;;;7.40;99.90;;;;;;5074248;28;20583;-68
2024/01/23 04:08:24;;;;;;;18.30;3.57;;;7.30;99.90;;;;;;5074261;28;20180;-68
2024/01/23 04:10:49;;;;;;;13.73;3.37;;;7.30;99.90;;;;;;5074531;28;20178;-68
2024/01/23 04:13:15;;;;;;;17.87;3.70;;;7.40;99.90;;;;;;5074362;28;20230;-68
2024/01/23 04:15:41;;;;;;;19.53;4.00;;;7.30;99.90;;;;;;5072354;28;20217;-68
2024/01/23 04:18:06;;;;;;;15.87;3.70;;;7.30;99.90;;;;;;5074003;28;20567;-69
2024/01/23 04:20:32;;;;;;;13.60;3.47;;;7.30;99.90;;;;;;5073777;28;20671;-68
2024/01/23 04:22:59;;;;;;;13.90;2.90;;;7.30;99.90;;;;;;5073808;28;20249;-68
2024/01/23 04:25:24;;;;;;;16.17;3.50;;;7.30;99.90;;;;;;5074101;28;20196;-68
2024/01/23 04:27:50;;;;;;;17.57;3.73;;;7.20;99.90;;;;;;5073931;28;20529;-68
2024/01/23 04:30:16;;;;;;;15.00;3.80;;;7.20;99.90;;;;;;5073453;28;20212;-68
2024/01/23 04:32:41;;;;;;;15.40;3.67;;;7.10;99.90;;;;;;5073250;28;20632;-69
2024/01/23 04:35:07;;;;;;;15.47;3.40;;;7.10;99.90;;;;;;5073517;28;20271;-68
2024/01/23 04:37:33;;;;;;;16.70;3.47;;;7.20;99.90;;;;;;5073812;28;20173;-69
2024/01/23 04:40:00;;;;;;;15.60;4.23;;;7.20;99.90;;;;;;5073828;28;20177;-68
2024/01/23 04:42:25;;;;;;;19.03;3.23;;;7.20;99.90;;;;;;5073205;28;20666;-69
2024/01/23 04:44:51;;;;;;;12.47;3.23;;;7.10;99.90;;;;;;5073140;28;20180;-69
2024/01/23 04:47:17;;;;;;;18.27;3.87;;;7.10;99.90;;;;;;5071675;28;20694;-68
2024/01/23 04:49:42;;;;;;;12.53;3.07;;;7.10;99.90;;;;;;5073717;28;20165;-69
2024/01/23 04:52:08;;;;;;;17.03;3.13;;;7.00;99.90;;;;;;5073204;28;20523;-68
2024/01/23 04:54:33;;;;;;;18.93;3.70;;;7.00;99.90;;;;;;5073194;28;20169;-69
2024/01/23 04:56:59;;;;;;;13.47;3.53;;;7.00;99.90;;;;;;5073023;28;20545;-69
2024/01/23 04:59:24;;;;;;;18.67;3.47;;;7.00;99.90;;;;;;5073114;28;20628;-68
2024/01/23 05:01:50;;;;;;;18.90;3.60;;;7.00;99.90;;;;;;5073260;28;20667;-69
2024/01/23 05:04:15;;;;;;;12.47;3.03;;;7.00;99.90;;;;;;5073530;28;20562;-69
2024/01/23 05:06:41;;;;;;;13.87;3.00;;;7.00;99.90;;;;;;5073001;28;20247;-69
2024/01/23 05:09:07;;;;;;;14.33;3.23;;;7.00;99.90;;;;;;5072982;28;20168;-68
2024/01/23 05:11:32;;;;;;;18.33;3.73;;;7.00;99.90;;;;;;5072622;28;20168;-68
2024/01/23 05:13:58;;;;;;;21.57;3.90;;;7.00;99.90;;;;;;5072869;28;20218;-69
2024/01/23 05:16:24;;;;;;;17.57;3.10;;;7.00;99.90;;;;;;5072777;28;20172;-68
2024/01/23 05:18:49;;;;;;;12.33;3.73;;;6.90;99.90;;;;;;5072707;28;20164;-68
2024/01/23 05:21:15;;;;;;;15.57;3.57;;;6.80;99.90;;;;;;5072100;28;20254;-69
2024/01/23 05:23:42;;;;;;;12.77;3.63;;;6.80;99.90;;;;;;5072337;28;20214;-69
2024/01/23 05:26:08;;;;;;;16.90;3.63;;;6.80;99.90;;;;;;5073416;28;20271;-69
2024/01/23 05:28:33;;;;;;;19.20;3.47;;;6.80;99.90;;;;;;5072165;28;20640;-68
2024/01/23 05:30:59;;;;;;;17.83;3.83;;;6.70;99.90;;;;;;5072394;28;20355;-69
2024/01/23 05:33:24;;;;;;;15.53;3.83;;;6.80;99.90;;;;;;5072767;28;20211;-69
2024/01/23 05:35:50;;;;;;;18.77;3.87;;;6.70;99.90;;;;;;5072668;28;20187;-69
2024/01/23 05:38:15;;;;;;;17.80;3.90;;;6.70;99.90;;;;;;5072538;28;20191;-69
2024/01/23 05:40:41;;;;;;;14.60;3.30;;;6.70;99.90;;;;;;5071845;28;20204;-69
2024/01/23 05:43:07;;;;;;;17.53;3.83;;;6.70;99.90;;;;;;5072363;28;20233;-69
2024/01/23 05:45:32;;;;;;;13.80;3.57;;;6.60;99.90;;;;;;5072440;28;20180;-68
2024/01/23 05:47:58;;;;;;;18.60;3.40;;;6.70;99.90;;;;;;5072788;28;20180;-68
2024/01/23 05:50:24;;;;;;;16.37;3.33;;;6.70;99.90;;;;;;5072242;28;20513;-69
2024/01/23 05:52:49;;;;;;;18.77;4.10;;;6.70;99.90;;;;;;5071969;28;20172;-69
2024/01/23 05:55:15;;;;;;;20.90;3.77;;;6.60;99.90;;;;;;5072644;28;20180;-69
2024/01/23 05:57:41;;;;;;;22.00;3.63;;;6.60;99.90;;;;;;5072212;28;20204;-69
2024/01/23 06:00:09;;;;;;;22.63;3.87;;;6.50;99.90;;;;;;5071609;28;20259;-69
2024/01/23 06:02:35;;;;;;;18.83;4.10;;;6.60;99.90;;;;;;5072092;28;20203;-70
2024/01/23 06:05:01;;;;;;;19.80;4.33;;;6.60;99.90;;;;;;5072422;28;20256;-69
2024/01/23 06:07:26;;;;;;;14.67;3.80;;;6.60;99.90;;;;;;5071430;28;20172;-69
2024/01/23 06:09:52;;;;;;;20.43;4.30;;;6.60;99.90;;;;;;5071865;28;20172;-69
2024/01/23 06:12:18;;;;;;;20.13;3.70;;;6.50;99.90;;;;;;5071780;28;20226;-68
2024/01/23 06:14:43;;;;;;;20.07;4.37;;;6.50;99.90;;;;;;5072338;28;20264;-68
2024/01/23 06:17:09;;;;;;;15.47;4.53;;;6.50;99.90;;;;;;5071779;28;20185;-70
2024/01/23 06:19:35;;;;;;;19.33;4.50;;;6.40;99.90;;;;;;5071626;28;20179;-69
2024/01/23 06:22:00;;;;;;;21.10;4.40;;;6.40;99.90;;;;;;5071506;28;20212;-69
2024/01/23 06:24:26;;;;;;;26.00;5.17;;;6.40;99.90;;;;;;5072082;28;20218;-68
2024/01/23 06:26:52;;;;;;;27.57;4.67;;;6.40;99.90;;;;;;5071606;28;20589;-70
2024/01/23 06:29:17;;;;;;;29.90;5.17;;;6.30;99.90;;;;;;5071737;28;20181;-69
2024/01/23 06:31:43;;;;;;;19.03;4.47;;;6.30;99.90;;;;;;5071175;28;20256;-70
2024/01/23 06:34:09;;;;;;;32.83;5.50;;;6.40;99.90;;;;;;5071356;28;20243;-69
2024/01/23 06:36:37;;;;;;;30.17;5.47;;;6.40;99.90;;;;;;5071543;28;20177;-70
2024/01/23 06:39:03;;;;;;;21.70;5.27;;;6.40;99.90;;;;;;5071577;28;20690;-69
2024/01/23 06:41:28;;;;;;;22.77;4.23;;;6.40;99.90;;;;;;5071046;28;20255;-69
2024/01/23 06:43:54;;;;;;;26.17;5.43;;;6.30;99.90;;;;;;5071804;28;20536;-70
2024/01/23 06:46:20;;;;;;;23.00;4.87;;;6.30;99.90;;;;;;5071724;28;20631;-70
2024/01/23 06:48:46;;;;;;;20.97;4.90;;;6.20;99.90;;;;;;5070918;28;20165;-70
2024/01/23 06:51:11;;;;;;;38.10;6.30;;;6.30;99.90;;;;;;5071053;28;20192;-69
2024/01/23 06:53:37;;;;;;;28.80;5.90;;;6.20;99.90;;;;;;5073684;28;20179;-70
2024/01/23 06:56:03;;;;;;;22.13;5.30;;;6.20;99.90;;;;;;5074768;28;20272;-69
2024/01/23 06:58:29;;;;;;;28.93;5.83;;;6.30;99.90;;;;;;5074756;28;20211;-69
2024/01/23 07:00:54;;;;;;;21.77;5.57;;;6.20;99.90;;;;;;5074815;28;20571;-69
2024/01/23 07:03:20;;;;;;;23.33;5.07;;;6.30;99.90;;;;;;5074259;28;20263;-70
2024/01/23 07:05:46;;;;;;;30.80;5.10;;;6.20;99.90;;;;;;5074164;28;20547;-69
2024/01/23 07:08:11;;;;;;;28.33;5.80;;;6.30;99.90;;;;;;5075074;28;20705;-69
2024/01/23 07:10:37;;;;;;;30.47;5.20;;;6.30;99.90;;;;;;5073802;28;20184;-70
2024/01/23 07:13:03;;;;;;;27.33;6.23;;;6.30;99.90;;;;;;5075102;28;20179;-71
2024/01/23 07:15:29;;;;;;;27.13;5.63;;;6.30;99.90;;;;;;5074263;28;20612;-70
2024/01/23 07:17:54;;;;;;;28.13;6.13;;;6.30;99.90;;;;;;5074529;28;20181;-70
2024/01/23 07:20:20;;;;;;;34.37;5.60;;;6.30;99.90;;;;;;5073830;28;20168;-69
2024/01/23 07:22:45;;;;;;;31.97;6.37;;;6.20;99.90;;;;;;5073820;28;20636;-70
2024/01/23 07:25:12;;;;;;;26.73;5.40;;;6.30;99.90;;;;;;5073933;28;20173;-69
2024/01/23 07:27:37;;;;;;;27.40;5.13;;;6.30;99.90;;;;;;5074973;28;20168;-69
2024/01/23 07:30:03;;;;;;;21.47;5.73;;;6.20;99.90;;;;;;5072377;28;20223;-70
2024/01/23 07:32:29;;;;;;;37.13;6.73;;;6.30;99.90;;;;;;5073898;28;20176;-70
2024/01/23 07:34:54;;;;;;;31.07;6.50;;;6.30;99.90;;;;;;5073389;28;20234;-70
2024/01/23 07:37:20;;;;;;;32.93;6.07;;;6.30;99.90;;;;;;5073671;28;20215;-70
2024/01/23 07:39:45;;;;;;;36.97;6.87;;;6.30;99.90;;;;;;5074022;28;20689;-69
2024/01/23 07:42:11;;;;;;;24.63;5.67;;;6.30;99.90;;;;;;5073046;28;20745;-69
2024/01/23 07:44:39;;;;;;;29.53;6.27;;;6.30;99.90;;;;;;5073947;28;20173;-70
2024/01/23 07:47:05;;;;;;;26.10;5.63;;;6.30;99.90;;;;;;5073108;28;20246;-71
2024/01/23 07:49:31;;;;;;;40.13;5.47;;;6.30;99.90;;;;;;5074133;28;20625;-70
2024/01/23 07:51:56;;;;;;;24.17;5.40;;;6.30;99.90;;;;;;5073519;28;20207;-70
2024/01/23 07:54:22;;;;;;;28.80;5.70;;;6.40;99.90;;;;;;5077841;28;20203;-72
2024/01/23 07:56:50;;;;;;;27.90;5.37;;;6.40;99.90;;;;;;5085151;28;20337;-72
2024/01/23 07:59:16;;;;;;;28.47;6.67;;;6.50;99.90;;;;;;5077741;28;20187;-72
2024/01/23 08:01:42;;;;;;;29.97;6.13;;;6.50;99.90;;;;;;5072229;28;20311;-71
2024/01/23 08:04:07;;;;;;;31.93;7.10;;;6.50;99.90;;;;;;5071573;28;20314;-70
2024/01/23 08:06:33;;;;;;;30.43;6.00;;;6.60;99.90;;;;;;5072597;28;20173;-69
2024/01/23 08:08:59;;;;;;;28.83;5.87;;;6.70;99.90;;;;;;5072639;28;20179;-70
2024/01/23 08:11:25;;;;;;;34.43;5.77;;;6.80;99.90;;;;;;5072740;28;20169;-70
2024/01/23 08:13:51;;;;;;;29.40;6.00;;;7.00;99.90;;;;;;5072785;28;20531;-72
2024/01/23 08:16:16;;;;;;;27.53;5.33;;;7.30;99.90;;;;;;5072363;28;20204;-71
2024/01/23 08:18:42;;;;;;;16.10;4.77;;;7.80;99.90;;;;;;5072572;28;20188;-73
2024/01/23 08:21:09;;;;;;;25.07;5.27;;;8.30;99.90;;;;;;5072673;28;20223;-73
2024/01/23 08:23:35;;;;;;;28.13;5.57;;;8.90;99.90;;;;;;5072046;28;20207;-70
2024/01/23 08:26:01;;;;;;;24.57;5.40;;;9.10;99.90;;;;;;5080007;28;20635;-70
2024/01/23 08:28:27;;;;;;;23.30;5.33;;;9.40;99.90;;;;;;5082737;28;20179;-71
2024/01/23 08:30:53;;;;;;;22.53;6.03;;;9.60;99.90;;;;;;5081201;28;20435;-70
2024/01/23 08:33:20;;;;;;;31.90;5.93;;;9.40;99.90;;;;;;5093020;28;20259;-70
2024/01/23 08:35:46;;;;;;;24.87;5.20;;;8.90;99.90;;;;;;5106383;28;20244;-68
2024/01/23 08:38:12;;;;;;;30.13;5.20;;;8.70;99.90;;;;;;5112872;28;20701;-72
2024/01/23 08:40:38;;;;;;;28.57;5.80;;;8.50;99.90;;;;;;5102296;28;20294;-71
2024/01/23 08:43:05;;;;;;;32.47;6.23;;;8.50;99.90;;;;;;5095147;28;20527;-70
2024/01/23 08:45:31;;;;;;;35.40;6.63;;;8.40;99.90;;;;;;5097033;28;20175;-71
2024/01/23 08:47:57;;;;;;;24.07;5.47;;;8.30;99.90;;;;;;5101372;28;20212;-69
2024/01/23 08:50:22;;;;;;;37.10;6.53;;;8.20;99.90;;;;;;5099252;28;20708;-69
2024/01/23 08:52:49;;;;;;;31.70;7.37;;;8.00;99.90;;;;;;5109446;28;20232;-70
2024/01/23 08:55:15;;;;;;;34.87;6.63;;;7.80;99.90;;;;;;5095532;28;20626;-70
2024/01/23 08:57:40;;;;;;;29.50;6.90;;;7.60;99.90;;;;;;5104804;28;20282;-70
2024/01/23 09:00:08;;;;;;;28.93;6.40;;;7.70;99.90;;;;;;5098429;28;20266;-70
2024/01/23 09:02:34;;;;;;;24.37;6.20;;;8.20;99.90;;;;;;5097782;28;20199;-71
2024/01/23 09:04:59;;;;;;;28.87;6.50;;;8.90;99.90;;;;;;5091294;28;20639;-72
2024/01/23 09:07:25;;;;;;;53.83;24.13;;;9.30;99.90;;;;;;5096168;28;20237;-71
2024/01/23 09:09:51;;;;;;;28.07;6.97;;;9.80;99.90;;;;;;5102156;28;20219;-71
2024/01/23 09:12:16;;;;;;;29.27;7.50;;;10.00;99.90;;;;;;5098966;28;20584;-69
2024/01/23 09:14:43;;;;;;;37.77;8.40;;;10.10;99.90;;;;;;5106205;28;20535;-71
2024/01/23 09:17:09;;;;;;;29.10;6.43;;;10.80;99.90;;;;;;5093552;28;20180;-71
2024/01/23 09:19:34;;;;;;;29.77;7.17;;;11.00;99.90;;;;;;5106056;28;20340;-70
2024/01/23 09:22:00;;;;;;;36.20;7.10;;;11.30;99.90;;;;;;5109658;28;20213;-70
2024/01/23 09:24:26;;;;;;;26.10;6.20;;;11.80;99.90;;;;;;5098422;28;20712;-70
2024/01/23 09:26:51;;;;;;;28.30;6.30;;;12.40;99.90;;;;;;5090706;28;20199;-70
2024/01/23 09:29:17;;;;;;;25.80;6.63;;;12.90;99.90;;;;;;5096242;28;20257;-70
2024/01/23 09:31:44;;;;;;;25.97;7.10;;;13.10;99.90;;;;;;5103195;28;20310;-69
2024/01/23 09:34:10;;;;;;;28.43;6.70;;;13.30;99.90;;;;;;5092231;28;20180;-70
2024/01/23 09:36:35;;;;;;;29.23;7.30;;;13.20;99.90;;;;;;5105317;28;20691;-69
2024/01/23 09:39:01;;;;;;;28.40;7.50;;;13.20;99.90;;;;;;5093636;28;20172;-71
2024/01/23 09:41:28;;;;;;;29.40;7.27;;;12.90;99.90;;;;;;5097348;28;20199;-71
2024/01/23 09:43:53;;;;;;;35.23;6.83;;;12.60;99.90;;;;;;5103842;28;20168;-71
2024/01/23 09:46:20;;;;;;;32.17;7.40;;;12.40;99.90;;;;;;5099454;28;20164;-70
2024/01/23 09:48:47;;;;;;;29.90;7.47;;;11.80;99.90;;;;;;5091166;28;20171;-70
2024/01/23 09:51:14;;;;;;;39.27;8.00;;;11.70;99.90;;;;;;5095551;28;20224;-69
2024/01/23 09:53:43;;;;;;;26.50;6.63;;;11.50;99.90;;;;;;5091868;28;20175;-69
2024/01/23 09:56:11;;;;;;;31.37;7.27;;;11.20;99.90;;;;;;5088665;28;20192;-69
2024/01/23 09:58:36;;;;;;;29.63;7.03;;;11.00;99.90;;;;;;5091989;28;20262;-68
2024/01/23 10:01:03;;;;;;;30.40;6.77;;;10.90;99.90;;;;;;5108641;28;20364;-69
2024/01/23 10:03:33;;;;;;;29.93;6.47;;;10.50;99.90;;;;;;5085568;28;20237;-70
2024/01/23 10:05:59;;;;;;;31.20;7.33;;;10.50;99.90;;;;;;5091155;28;20175;-70
2024/01/23 10:08:25;;;;;;;30.23;7.27;;;10.30;99.90;;;;;;5098101;28;20309;-70
2024/01/23 10:10:59;;;;;;;38.17;7.50;;;10.40;99.90;;;;;;5089993;28;20524;-70
2024/01/23 10:13:24;;;;;;;33.47;7.57;;;10.50;99.90;;;;;;5096695;28;20634;-70
2024/01/23 10:15:53;;;;;;;31.03;7.07;;;10.20;99.90;;;;;;5103325;28;20178;-68
2024/01/23 10:18:19;;;;;;;36.73;7.00;;;10.20;99.90;;;;;;5091660;28;20180;-69
2024/01/23 10:20:46;;;;;;;29.57;7.33;;;10.30;99.90;;;;;;5098053;28;20215;-69
2024/01/23 10:23:11;;;;;;;35.07;8.53;;;10.40;99.90;;;;;;5090496;28;20187;-70
2024/01/23 10:25:39;;;;;;;37.27;8.93;;;10.50;99.90;;;;;;5097627;28;20638;-70
2024/01/23 10:28:10;;;;;;;31.40;7.30;;;10.80;99.90;;;;;;5105231;28;20160;-69
2024/01/23 10:30:45;;;;;;;24.63;6.70;;;10.70;99.90;;;;;;5094620;28;20318;-70
2024/01/23 10:33:11;;;;;;;34.00;7.13;;;10.90;99.90;;;;;;5098568;28;20250;-70
2024/01/23 10:35:37;;;;;;;31.30;7.20;;;10.90;99.90;;;;;;5108504;28;20179;-70
2024/01/23 10:38:05;;;;;;;29.13;6.53;;;11.20;99.90;;;;;;5105236;28;20563;-70
2024/01/23 10:40:31;;;;;;;35.20;8.97;;;11.00;99.90;;;;;;5113845;28;20707;-70
2024/01/23 10:42:57;;;;;;;41.70;14.27;;;10.80;99.90;;;;;;5097141;28;20175;-69
2024/01/23 10:45:23;;;;;;;35.30;7.43;;;10.70;99.90;;;;;;5103275;28;20200;-70
2024/01/23 10:47:51;;;;;;;32.37;7.40;;;10.70;99.90;;;;;;5092474;28;20198;-70
2024/01/23 10:50:19;;;;;;;25.97;7.03;;;10.30;99.90;;;;;;5107336;28;20240;-71
2024/01/23 10:52:47;;;;;;;24.23;6.30;;;10.30;99.90;;;;;;5097644;28;20203;-70
2024/01/23 10:55:13;;;;;;;34.40;6.80;;;10.30;99.90;;;;;;5097874;28;20218;-72
2024/01/23 10:57:39;;;;;;;30.03;6.67;;;10.30;99.90;;;;;;5100026;28;20267;-72
2024/01/23 11:00:05;;;;;;;32.57;6.50;;;10.30;99.90;;;;;;5104896;28;20186;-70
2024/01/23 11:02:52;;;;;;;28.53;6.33;;;10.30;99.90;;;;;;5099749;28;20705;-70
2024/01/23 11:05:24;;;;;;;26.23;6.20;;;10.50;99.90;;;;;;5094295;28;20183;-70
2024/01/23 11:07:57;;;;;;;30.10;6.47;;;10.70;99.90;;;;;;5103428;28;20270;-71
2024/01/23 11:10:33;;;;;;;28.07;6.47;;;10.90;99.90;;;;;;5094724;28;20176;-72
2024/01/23 11:13:27;;;;;;;25.70;6.30;;;11.00;99.90;;;;;;5110544;28;20185;-71
2024/01/23 11:15:53;;;;;;;29.83;7.03;;;11.10;99.90;;;;;;5102526;28;20167;-72
2024/01/23 11:18:25;;;;;;;30.60;6.13;;;11.00;99.90;;;;;;5100038;28;20225;-70
2024/01/23 11:21:03;;;;;;;30.40;6.63;;;10.80;99.90;;;;;;5093043;28;20231;-72
2024/01/23 11:23:30;;;;;;;34.33;7.40;;;10.50;99.90;;;;;;5098205;28;20172;-71
2024/01/23 11:26:01;;;;;;;27.37;6.70;;;10.50;99.90;;;;;;5105322;28;20255;-76
2024/01/23 11:28:28;;;;;;;26.57;6.70;;;10.70;99.90;;;;;;5100709;28;20171;-72
2024/01/23 11:31:14;;;;;;;32.03;7.60;;;10.70;99.90;;;;;;5104338;28;20303;-73
2024/01/23 11:33:40;;;;;;;40.20;8.30;;;10.50;99.90;;;;;;5102938;28;20160;-71
2024/01/23 11:36:10;;;;;;;25.57;7.37;;;10.50;99.90;;;;;;5101301;28;20241;-71
2024/01/23 11:38:45;;;;;;;34.57;8.07;;;10.50;99.90;;;;;;5105066;28;20265;-72
2024/01/23 11:41:24;;;;;;;39.57;8.67;;;10.40;99.90;;;;;;5103383;28;20199;-71
2024/01/23 11:44:15;;;;;;;29.90;8.10;;;10.40;99.90;;;;;;5100292;28;20526;-72
2024/01/23 11:46:42;;;;;;;27.77;7.23;;;10.50;99.90;;;;;;5104119;28;20172;-72
2024/01/23 11:49:09;;;;;;;36.73;8.53;;;10.50;99.90;;;;;;5107113;28;20245;-71
2024/01/23 11:51:38;;;;;;;27.63;8.10;;;10.60;99.90;;;;;;5107097;28;20171;-70
2024/01/23 11:54:11;;;;;;;32.80;7.57;;;10.70;99.90;;;;;;5103431;28;20183;-72
2024/01/23 11:56:38;;;;;;;33.63;7.87;;;11.20;99.90;;;;;;5099548;28;21135;-72
2024/01/23 11:59:04;;;;;;;31.77;7.50;;;11.30;99.90;;;;;;5092522;28;20182;-71
2024/01/23 12:01:31;;;;;;;40.03;7.83;;;11.00;99.90;;;;;;5101965;28;20216;-71
2024/01/23 12:03:57;;;;;;;31.37;8.00;;;11.10;99.90;;;;;;5104013;28;20258;-71
2024/01/23 12:06:25;;;;;;;35.40;8.50;;;11.30;99.90;;;;;;5104678;28;20168;-72
2024/01/23 12:08:51;;;;;;;30.27;7.20;;;11.50;99.90;;;;;;5105212;28;20199;-72
2024/01/23 12:11:17;;;;;;;28.90;7.57;;;11.30;99.90;;;;;;5102329;28;20183;-75
2024/01/23 12:13:50;;;;;;;34.10;8.37;;;11.20;99.90;;;;;;5103924;28;20172;-76
2024/01/23 12:16:17;;;;;;;37.70;8.20;;;11.10;99.90;;;;;;5092058;28;20236;-72
2024/01/23 12:18:44;;;;;;;33.00;8.20;;;10.80;99.90;;;;;;5092704;28;20182;-70
2024/01/23 12:21:10;;;;;;;36.33;7.83;;;10.80;99.90;;;;;;5091699;28;20199;-71
2024/01/23 12:23:36;;;;;;;35.07;7.77;;;10.60;99.90;;;;;;5091351;28;20168;-71
2024/01/23 12:26:03;;;;;;;33.70;7.53;;;10.50;99.90;;;;;;5092343;28;20191;-70
2024/01/23 12:28:29;;;;;;;29.07;7.87;;;10.50;99.90;;;;;;5095593;28;20332;-71
2024/01/23 12:30:55;;;;;;;28.63;6.67;;;10.60;99.90;;;;;;5093027;28;20639;-70
2024/01/23 12:33:21;;;;;;;37.10;7.67;;;10.50;99.90;;;;;;5106517;28;20258;-71
2024/01/23 12:35:48;;;;;;;31.93;8.20;;;10.40;99.90;;;;;;5113490;28;20775;-71
2024/01/23 12:38:14;;;;;;;36.07;7.67;;;10.40;99.90;;;;;;5103284;28;20274;-71